Time,TemperatureF,DewpointF,PressureIn,WindDirection,WindDirectionDegrees,WindSpeedMPH,WindSpeedGustMPH,Humidity,HourlyPrecipIn,Conditions,Clouds,dailyrainin,SoftwareType,DateUTC
2013-03-25 00:06:00,38.2,37.0,29.59,East,100,0.0,1.0,94,0.00,,,0.70,weatherlink.com 1.10,2013-03-25 04:06:00,
2013-03-25 00:21:00,38.0,37.0,29.58,East,100,0.0,1.0,94,0.00,,,0.70,weatherlink.com 1.10,2013-03-25 04:21:00,
2013-03-25 00:36:00,38.0,37.0,29.58,East,101,0.0,0.0,94,0.00,,,0.70,weatherlink.com 1.10,2013-03-25 04:36:00,
2013-03-25 00:51:00,38.2,37.0,29.58,East,101,0.0,0.0,94,0.00,,,0.70,weatherlink.com 1.10,2013-03-25 04:51:00,
2013-03-25 01:06:00,38.2,37.0,29.58,East,101,0.0,0.0,94,0.00,,,0.70,weatherlink.com 1.10,2013-03-25 05:06:00,
2013-03-25 01:21:00,38.2,37.0,29.59,East,101,0.0,0.0,94,0.00,,,0.70,weatherlink.com 1.10,2013-03-25 05:21:00,
2013-03-25 01:36:00,38.2,37.0,29.59,East,101,0.0,0.0,94,0.00,,,0.70,weatherlink.com 1.10,2013-03-25 05:36:00,
2013-03-25 01:51:00,38.2,37.0,29.59,East,101,0.0,1.0,94,0.00,,,0.70,weatherlink.com 1.10,2013-03-25 05:51:00,
2013-03-25 02:06:00,38.0,37.0,29.58,East,101,0.0,0.0,94,0.00,,,0.70,weatherlink.com 1.10,2013-03-25 06:06:00,
2013-03-25 02:21:00,38.0,37.0,29.58,East,101,0.0,0.0,94,0.00,,,0.00,weatherlink.com 1.10,2013-03-25 06:21:00,
2013-03-25 02:36:00,38.0,37.0,29.58,East,101,0.0,0.0,95,0.00,,,0.00,weatherlink.com 1.10,2013-03-25 06:36:00,
2013-03-25 02:51:00,38.2,37.0,29.57,East,101,0.0,0.0,95,0.00,,,0.00,weatherlink.com 1.10,2013-03-25 06:51:00,
2013-03-25 03:06:00,38.2,37.0,29.58,East,101,0.0,0.0,95,0.00,,,0.00,weatherlink.com 1.10,2013-03-25 07:06:00,
2013-03-25 03:21:00,38.2,37.0,29.57,East,101,0.0,0.0,95,0.00,,,0.00,weatherlink.com 1.10,2013-03-25 07:21:00,
2013-03-25 03:36:00,38.3,37.0,29.57,East,101,0.0,0.0,95,0.01,,,0.01,weatherlink.com 1.10,2013-03-25 07:36:00,
2013-03-25 03:51:00,38.3,37.0,29.57,East,101,0.0,0.0,95,0.01,,,0.01,weatherlink.com 1.10,2013-03-25 07:51:00,
2013-03-25 04:21:00,38.5,37.0,29.55,East,101,0.0,0.0,95,0.01,,,0.01,weatherlink.com 1.10,2013-03-25 08:21:00,
2013-03-25 04:36:00,38.5,37.0,29.55,East,101,0.0,0.0,95,0.00,,,0.01,weatherlink.com 1.10,2013-03-25 08:36:00,
2013-03-25 04:51:00,38.6,38.0,29.55,East,101,0.0,0.0,96,0.00,,,0.01,weatherlink.com 1.10,2013-03-25 08:51:00,
2013-03-25 05:21:00,38.6,38.0,29.55,East,101,0.0,0.0,96,0.00,,,0.01,weatherlink.com 1.10,2013-03-25 09:21:00,
2013-03-25 05:36:00,38.8,38.0,29.56,East,101,0.0,1.0,96,0.01,,,0.02,weatherlink.com 1.10,2013-03-25 09:36:00,
2013-03-25 05:51:00,38.8,38.0,29.56,East,101,0.0,0.0,96,0.02,,,0.03,weatherlink.com 1.10,2013-03-25 09:51:00,
2013-03-25 06:21:00,38.8,38.0,29.57,East,101,0.0,0.0,96,0.03,,,0.04,weatherlink.com 1.10,2013-03-25 10:21:00,
2013-03-25 06:36:00,38.8,38.0,29.57,East,101,0.0,1.0,96,0.02,,,0.04,weatherlink.com 1.10,2013-03-25 10:36:00,
2013-03-25 06:51:00,38.8,38.0,29.58,East,101,0.0,0.0,96,0.01,,,0.04,weatherlink.com 1.10,2013-03-25 10:51:00,
2013-03-25 07:06:00,38.9,38.0,29.58,East,101,0.0,0.0,96,0.00,,,0.04,weatherlink.com 1.10,2013-03-25 11:06:00,
2013-03-25 07:21:00,38.9,38.0,29.58,East,101,0.0,0.0,96,0.00,,,0.04,weatherlink.com 1.10,2013-03-25 11:21:00,
2013-03-25 07:36:00,39.1,38.0,29.59,West,259,0.0,2.0,96,0.00,,,0.04,weatherlink.com 1.10,2013-03-25 11:36:00,
2013-03-25 07:51:00,39.1,38.0,29.59,WNW,288,0.0,2.0,96,0.00,,,0.04,weatherlink.com 1.10,2013-03-25 11:51:00,
2013-03-25 08:06:00,39.2,38.0,29.59,WNW,288,0.0,1.0,96,0.00,,,0.04,weatherlink.com 1.10,2013-03-25 12:06:00,
2013-03-25 08:21:00,39.3,38.0,29.60,South,189,0.0,3.0,96,0.00,,,0.04,weatherlink.com 1.10,2013-03-25 12:21:00,
2013-03-25 08:36:00,39.3,38.0,29.60,SW,223,1.0,4.0,95,0.00,,,0.04,weatherlink.com 1.10,2013-03-25 12:36:00,
2013-03-25 08:51:00,39.1,37.0,29.61,West,265,0.0,4.0,93,0.00,,,0.04,weatherlink.com 1.10,2013-03-25 12:51:00,
2013-03-25 09:06:00,39.1,37.0,29.61,WSW,247,2.0,9.0,91,0.00,,,0.04,weatherlink.com 1.10,2013-03-25 13:06:00,
2013-03-25 09:21:00,39.2,37.0,29.62,WSW,242,3.0,4.0,91,0.00,,,0.04,weatherlink.com 1.10,2013-03-25 13:21:00,
2013-03-25 09:36:00,39.6,37.0,29.63,West,259,2.0,4.0,89,0.00,,,0.04,weatherlink.com 1.10,2013-03-25 13:36:00,
2013-03-25 09:51:00,39.9,36.0,29.63,WSW,242,0.0,4.0,86,0.00,,,0.04,weatherlink.com 1.10,2013-03-25 13:51:00,
2013-03-25 10:06:00,40.6,36.0,29.63,WSW,248,3.0,9.0,84,0.00,,,0.04,weatherlink.com 1.10,2013-03-25 14:06:00,
2013-03-25 10:21:00,41.6,34.0,29.64,West,269,2.0,8.0,74,0.00,,,0.04,weatherlink.com 1.10,2013-03-25 14:21:00,
2013-03-25 10:36:00,41.8,30.0,29.64,West,264,0.0,11.0,63,0.00,,,0.04,weatherlink.com 1.10,2013-03-25 14:36:00,
2013-03-25 10:51:00,43.3,28.0,29.64,West,277,1.0,12.0,55,0.00,,,0.04,weatherlink.com 1.10,2013-03-25 14:51:00,
2013-03-25 11:07:00,43.3,25.0,29.64,West,269,0.0,6.0,49,0.00,,,0.04,weatherlink.com 1.10,2013-03-25 15:07:00,
2013-03-25 11:21:00,41.9,24.0,29.66,NW,308,1.0,6.0,50,0.00,,,0.04,weatherlink.com 1.10,2013-03-25 15:21:00,
2013-03-25 11:36:00,43.1,25.0,29.66,WSW,238,0.0,5.0,49,0.00,,,0.04,weatherlink.com 1.10,2013-03-25 15:36:00,
2013-03-25 11:52:00,43.2,24.0,29.67,WSW,247,6.0,10.0,47,0.00,,,0.04,weatherlink.com 1.10,2013-03-25 15:52:00,
2013-03-25 12:06:00,45.2,25.0,29.67,WSW,255,2.0,10.0,45,0.00,,,0.04,weatherlink.com 1.10,2013-03-25 16:06:00,
2013-03-25 12:22:00,46.7,25.0,29.67,NW,312,2.0,12.0,42,0.00,,,0.04,weatherlink.com 1.10,2013-03-25 16:22:00,
2013-03-25 12:37:00,45.2,21.0,29.67,West,281,2.0,10.0,39,0.00,,,0.04,weatherlink.com 1.10,2013-03-25 16:37:00,
2013-03-25 12:52:00,44.5,24.0,29.68,WSW,243,0.0,8.0,44,0.00,,,0.04,weatherlink.com 1.10,2013-03-25 16:52:00,
2013-03-25 13:07:00,44.8,24.0,29.68,WNW,284,6.0,8.0,44,0.00,,,0.04,weatherlink.com 1.10,2013-03-25 17:07:00,
2013-03-25 13:22:00,46.2,25.0,29.68,SW,227,2.0,9.0,44,0.00,,,0.04,weatherlink.com 1.10,2013-03-25 17:22:00,
2013-03-25 13:37:00,45.7,24.0,29.68,West,261,1.0,10.0,43,0.00,,,0.04,weatherlink.com 1.10,2013-03-25 17:37:00,
2013-03-25 13:52:00,44.9,22.0,29.68,SW,227,1.0,8.0,41,0.00,,,0.04,weatherlink.com 1.10,2013-03-25 17:52:00,
2013-03-25 14:07:00,44.8,20.0,29.68,West,263,0.0,6.0,38,0.00,,,0.04,weatherlink.com 1.10,2013-03-25 18:07:00,
2013-03-25 14:22:00,46.1,21.0,29.68,West,272,1.0,7.0,37,0.00,,,0.04,weatherlink.com 1.10,2013-03-25 18:22:00,
2013-03-25 14:37:00,46.5,21.0,29.68,West,271,0.0,7.0,37,0.00,,,0.04,weatherlink.com 1.10,2013-03-25 18:37:00,
2013-03-25 14:52:00,46.1,20.0,29.68,SW,233,2.0,8.0,35,0.00,,,0.04,weatherlink.com 1.10,2013-03-25 18:52:00,
2013-03-25 15:07:00,45.7,21.0,29.67,West,280,0.0,7.0,38,0.00,,,0.04,weatherlink.com 1.10,2013-03-25 19:07:00,
2013-03-25 15:22:00,46.0,20.0,29.67,West,264,6.0,6.0,35,0.00,,,0.04,weatherlink.com 1.10,2013-03-25 19:22:00,
2013-03-25 15:37:00,47.0,20.0,29.67,WSW,247,8.0,10.0,35,0.00,,,0.04,weatherlink.com 1.10,2013-03-25 19:37:00,
2013-03-25 15:52:00,48.2,19.0,29.68,West,279,3.0,5.0,32,0.00,,,0.04,weatherlink.com 1.10,2013-03-25 19:52:00,
2013-03-25 16:07:00,48.2,19.0,29.67,WNW,286,2.0,13.0,31,0.00,,,0.04,weatherlink.com 1.10,2013-03-25 20:07:00,
2013-03-25 16:22:00,48.6,19.0,29.68,WSW,258,5.0,17.0,31,0.00,,,0.04,weatherlink.com 1.10,2013-03-25 20:22:00,
2013-03-25 16:37:00,48.0,19.0,29.68,West,263,5.0,10.0,32,0.00,,,0.04,weatherlink.com 1.10,2013-03-25 20:37:00,
2013-03-25 16:52:00,47.4,19.0,29.69,West,277,2.0,9.0,32,0.00,,,0.04,weatherlink.com 1.10,2013-03-25 20:52:00,
2013-03-25 17:07:00,47.7,19.0,29.69,West,273,4.0,9.0,32,0.00,,,0.04,weatherlink.com 1.10,2013-03-25 21:07:00,
2013-03-25 17:22:00,47.1,21.0,29.69,WNW,285,2.0,9.0,35,0.00,,,0.04,weatherlink.com 1.10,2013-03-25 21:22:00,
2013-03-25 17:37:00,46.8,17.0,29.70,NW,311,0.0,8.0,31,0.00,,,0.04,weatherlink.com 1.10,2013-03-25 21:37:00,
2013-03-25 17:52:00,46.4,19.0,29.71,West,275,4.0,7.0,33,0.00,,,0.04,weatherlink.com 1.10,2013-03-25 21:52:00,
2013-03-25 18:07:00,46.0,17.0,29.71,West,272,3.0,10.0,32,0.00,,,0.04,weatherlink.com 1.10,2013-03-25 22:07:00,
2013-03-25 18:22:00,45.5,18.0,29.72,West,277,6.0,9.0,33,0.00,,,0.04,weatherlink.com 1.10,2013-03-25 22:22:00,
2013-03-25 18:37:00,45.4,18.0,29.73,WSW,238,2.0,8.0,34,0.00,,,0.04,weatherlink.com 1.10,2013-03-25 22:37:00,
2013-03-25 18:52:00,45.2,16.0,29.74,SW,229,1.0,6.0,31,0.00,,,0.04,weatherlink.com 1.10,2013-03-25 22:52:00,
2013-03-25 19:07:00,44.3,15.0,29.75,WNW,284,1.0,7.0,31,0.00,,,0.04,weatherlink.com 1.10,2013-03-25 23:07:00,
2013-03-25 19:22:00,43.6,17.0,29.77,WNW,284,0.0,8.0,34,0.00,,,0.04,weatherlink.com 1.10,2013-03-25 23:22:00,
2013-03-25 19:37:00,43.2,16.0,29.77,WSW,243,0.0,13.0,34,0.00,,,0.04,weatherlink.com 1.10,2013-03-25 23:37:00,
2013-03-25 19:52:00,42.6,17.0,29.78,West,259,0.0,4.0,35,0.00,,,0.04,weatherlink.com 1.10,2013-03-25 23:52:00,
2013-03-25 20:07:00,42.1,17.0,29.80,WNW,298,2.0,5.0,36,0.00,,,0.04,weatherlink.com 1.10,2013-03-26 00:07:00,
2013-03-25 20:22:00,41.9,17.0,29.80,West,270,2.0,8.0,36,0.00,,,0.04,weatherlink.com 1.10,2013-03-26 00:22:00,
2013-03-25 20:37:00,41.6,18.0,29.80,WSW,258,1.0,5.0,38,0.00,,,0.04,weatherlink.com 1.10,2013-03-26 00:37:00,
2013-03-25 20:52:00,41.2,18.0,29.82,North,360,0.0,5.0,40,0.00,,,0.04,weatherlink.com 1.10,2013-03-26 00:52:00,
2013-03-25 21:07:00,40.8,19.0,29.82,NNW,329,1.0,5.0,42,0.00,,,0.04,weatherlink.com 1.10,2013-03-26 01:07:00,
2013-03-25 21:22:00,40.5,19.0,29.84,West,276,3.0,6.0,43,0.00,,,0.04,weatherlink.com 1.10,2013-03-26 01:22:00,
2013-03-25 21:37:00,40.1,19.0,29.84,West,261,1.0,6.0,43,0.00,,,0.04,weatherlink.com 1.10,2013-03-26 01:37:00,
2013-03-25 21:52:00,39.6,20.0,29.85,WNW,285,4.0,4.0,45,0.00,,,0.04,weatherlink.com 1.10,2013-03-26 01:52:00,
2013-03-25 22:07:00,39.3,19.0,29.85,WNW,293,0.0,5.0,45,0.00,,,0.04,weatherlink.com 1.10,2013-03-26 02:07:00,
2013-03-25 22:22:00,39.2,20.0,29.86,West,273,1.0,8.0,46,0.00,,,0.04,weatherlink.com 1.10,2013-03-26 02:22:00,
2013-03-25 22:37:00,38.9,20.0,29.87,WNW,287,3.0,4.0,46,0.00,,,0.04,weatherlink.com 1.10,2013-03-26 02:37:00,
2013-03-25 22:52:00,38.5,20.0,29.88,WNW,295,0.0,7.0,48,0.00,,,0.04,weatherlink.com 1.10,2013-03-26 02:52:00,
2013-03-25 23:07:00,38.0,20.0,29.88,WSW,254,0.0,2.0,49,0.00,,,0.04,weatherlink.com 1.10,2013-03-26 03:07:00,
2013-03-25 23:22:00,37.8,21.0,29.88,West,272,0.0,3.0,50,0.00,,,0.04,weatherlink.com 1.10,2013-03-26 03:22:00,
2013-03-25 23:37:00,37.9,21.0,29.88,WSW,253,2.0,8.0,50,0.00,,,0.04,weatherlink.com 1.10,2013-03-26 03:37:00,
2013-03-25 23:52:00,37.8,21.0,29.88,WNW,289,0.0,3.0,50,0.00,,,0.04,weatherlink.com 1.10,2013-03-26 03:52:00,